createdAt,value
2022-11-07T00:01:21.768Z,6.40
2022-11-07T00:03:49.294Z,6.40
2022-11-07T00:06:16.170Z,6.40
2022-11-07T00:08:43.164Z,6.50
2022-11-07T00:11:09.963Z,6.50
2022-11-07T00:13:36.863Z,6.50
2022-11-07T00:16:06.781Z,6.50
2022-11-07T00:18:33.778Z,6.60
2022-11-07T00:21:08.800Z,6.60
2022-11-07T00:23:40.876Z,6.70
2022-11-07T00:26:10.301Z,6.70
2022-11-07T00:28:38.666Z,6.70
2022-11-07T00:31:07.223Z,6.70
2022-11-07T00:33:34.364Z,6.60
2022-11-07T00:36:01.779Z,6.40
2022-11-07T00:38:29.034Z,6.40
2022-11-07T00:41:00.907Z,6.40
2022-11-07T00:43:29.217Z,6.40
2022-11-07T00:45:56.521Z,6.30
2022-11-07T00:48:23.833Z,6.40
2022-11-07T00:50:50.647Z,6.30
2022-11-07T00:53:17.797Z,6.30
2022-11-07T00:55:44.884Z,6.30
2022-11-07T00:58:14.076Z,6.40
2022-11-07T01:00:42.055Z,6.40
2022-11-07T01:03:27.572Z,6.30
2022-11-07T01:06:03.459Z,6.40
2022-11-07T01:08:31.328Z,6.40
2022-11-07T01:10:59.116Z,6.40
2022-11-07T01:13:26.495Z,6.40
2022-11-07T01:15:53.300Z,6.50
2022-11-07T01:18:20.397Z,6.50
2022-11-07T01:20:47.233Z,6.50
2022-11-07T01:23:14.373Z,6.50
2022-11-07T01:25:41.582Z,6.50
2022-11-07T01:28:09.485Z,6.50
2022-11-07T01:30:44.145Z,6.50
2022-11-07T01:33:11.838Z,6.50
2022-11-07T01:35:39.072Z,6.60
2022-11-07T01:38:06.150Z,6.50
2022-11-07T01:40:53.190Z,6.50
2022-11-07T01:43:20.003Z,6.50
2022-11-07T01:45:46.801Z,6.50
2022-11-07T01:48:13.926Z,6.50
2022-11-07T01:50:40.754Z,6.50
2022-11-07T01:53:07.565Z,6.50
2022-11-07T01:55:35.851Z,6.50
2022-11-07T01:58:08.746Z,6.50
2022-11-07T02:00:37.422Z,6.50
2022-11-07T02:03:09.463Z,6.60
2022-11-07T02:05:45.254Z,6.60
2022-11-07T02:08:13.723Z,6.70
2022-11-07T02:10:41.324Z,6.80
2022-11-07T02:13:08.949Z,6.80
2022-11-07T02:15:36.800Z,6.80
2022-11-07T02:18:04.323Z,6.90
2022-11-07T02:20:31.287Z,6.90
2022-11-07T02:23:08.821Z,6.90
2022-11-07T02:25:36.261Z,6.90
2022-11-07T02:28:08.341Z,7.00
2022-11-07T02:30:35.322Z,6.90
2022-11-07T02:33:03.145Z,6.90
2022-11-07T02:35:45.572Z,6.90
2022-11-07T02:38:15.560Z,6.90
2022-11-07T02:40:45.372Z,6.90
2022-11-07T02:43:14.938Z,6.80
2022-11-07T02:45:44.130Z,6.80
2022-11-07T02:48:10.954Z,6.80
2022-11-07T02:50:38.087Z,6.90
2022-11-07T02:53:04.943Z,6.90
2022-11-07T02:55:31.738Z,6.80
2022-11-07T02:57:58.597Z,6.90
2022-11-07T03:00:25.853Z,6.90
2022-11-07T03:02:52.746Z,6.90
2022-11-07T03:05:20.576Z,7.00
2022-11-07T03:07:49.405Z,7.00
2022-11-07T03:10:17.792Z,7.10
2022-11-07T03:12:45.548Z,7.20
2022-11-07T03:15:13.712Z,7.20
2022-11-07T03:17:40.932Z,7.20
2022-11-07T03:20:08.776Z,7.30
2022-11-07T03:22:35.632Z,7.40
2022-11-07T03:25:02.575Z,7.50
2022-11-07T03:27:29.402Z,7.60
2022-11-07T03:29:56.214Z,7.60
2022-11-07T03:32:22.972Z,7.70
2022-11-07T03:34:49.875Z,7.70
2022-11-07T03:37:16.896Z,7.70
2022-11-07T03:39:43.704Z,7.80
2022-11-07T03:42:10.527Z,7.80
2022-11-07T03:44:37.328Z,7.80
2022-11-07T03:47:04.151Z,7.90
2022-11-07T03:49:30.970Z,7.90
2022-11-07T03:51:57.762Z,7.90
2022-11-07T03:54:24.540Z,8.00
2022-11-07T03:56:51.363Z,8.10
2022-11-07T03:59:18.146Z,8.10
2022-11-07T04:01:45.772Z,8.20
2022-11-07T04:04:13.132Z,8.10
2022-11-07T04:06:40.361Z,8.10
2022-11-07T04:09:07.530Z,8.10
2022-11-07T04:11:52.946Z,8.10
2022-11-07T04:14:38.705Z,8.10
2022-11-07T04:17:18.774Z,8.10
2022-11-07T04:19:50.325Z,8.10
2022-11-07T04:22:18.294Z,8.10
2022-11-07T04:24:46.239Z,8.10
2022-11-07T04:27:33.501Z,8.10
2022-11-07T04:30:18.937Z,8.10
2022-11-07T04:32:52.492Z,8.00
2022-11-07T04:35:21.168Z,8.00
2022-11-07T04:37:48.757Z,8.00
2022-11-07T04:40:16.880Z,8.00
2022-11-07T04:42:45.176Z,8.00
2022-11-07T04:45:13.079Z,8.00
2022-11-07T04:47:40.976Z,8.00
2022-11-07T04:50:11.155Z,8.00
2022-11-07T04:52:38.068Z,8.00
2022-11-07T04:55:06.546Z,8.00
2022-11-07T04:57:33.342Z,8.00
2022-11-07T05:00:00.138Z,8.00
2022-11-07T05:02:27.032Z,8.10
2022-11-07T05:04:53.952Z,8.10
2022-11-07T05:07:21.025Z,8.10
2022-11-07T05:09:47.862Z,8.10
2022-11-07T05:12:14.802Z,8.10
2022-11-07T05:14:41.603Z,8.10
2022-11-07T05:17:13.483Z,8.10
2022-11-07T05:19:43.077Z,8.10
2022-11-07T05:22:29.511Z,8.10
2022-11-07T05:24:56.489Z,8.10
2022-11-07T05:27:23.524Z,8.10
2022-11-07T05:29:50.508Z,8.10
2022-11-07T05:32:18.190Z,8.10
2022-11-07T05:34:45.077Z,8.10
2022-11-07T05:37:13.188Z,8.10
2022-11-07T05:39:40.091Z,8.10
2022-11-07T05:42:07.374Z,8.10
2022-11-07T05:44:34.577Z,8.00
2022-11-07T05:47:01.469Z,8.00
2022-11-07T05:49:28.502Z,8.00
2022-11-07T05:51:55.303Z,8.00
2022-11-07T05:54:22.212Z,8.00
2022-11-07T05:56:49.035Z,8.00
2022-11-07T05:59:15.879Z,8.00
2022-11-07T06:01:44.009Z,8.00
2022-11-07T06:04:12.436Z,7.90
2022-11-07T06:06:39.274Z,8.00
2022-11-07T06:09:06.087Z,8.00
2022-11-07T06:11:33.096Z,7.90
2022-11-07T06:13:59.935Z,8.00
2022-11-07T06:16:27.974Z,8.00
2022-11-07T06:18:54.809Z,8.00
2022-11-07T06:21:21.634Z,8.00
2022-11-07T06:23:48.479Z,8.00
2022-11-07T06:26:16.279Z,8.00
2022-11-07T06:28:43.133Z,8.00
2022-11-07T06:31:10.245Z,8.10
2022-11-07T06:33:37.091Z,8.10
2022-11-07T06:36:08.988Z,8.10
2022-11-07T06:38:36.759Z,8.10
2022-11-07T06:41:12.668Z,8.10
2022-11-07T06:43:40.365Z,8.20
2022-11-07T06:46:11.226Z,8.20
2022-11-07T06:48:38.168Z,8.20
2022-11-07T06:51:07.012Z,8.30
2022-11-07T06:53:34.053Z,8.30
2022-11-07T06:56:02.466Z,8.30
2022-11-07T06:58:29.604Z,8.40
2022-11-07T07:01:04.403Z,8.30
2022-11-07T07:03:31.365Z,8.40
2022-11-07T07:06:02.823Z,8.40
2022-11-07T07:08:30.398Z,8.40
2022-11-07T07:11:01.818Z,8.50
2022-11-07T07:13:30.004Z,8.50
2022-11-07T07:15:57.958Z,8.50
2022-11-07T07:18:26.158Z,8.60
2022-11-07T07:21:04.998Z,8.60
2022-11-07T07:23:34.551Z,8.60
2022-11-07T07:26:11.533Z,8.50
2022-11-07T07:28:38.923Z,8.60
2022-11-07T07:31:11.275Z,8.60
2022-11-07T07:33:38.052Z,8.70
2022-11-07T07:36:05.685Z,8.90
2022-11-07T07:38:33.654Z,8.90
2022-11-07T07:41:01.089Z,9.00
2022-11-07T07:43:29.183Z,9.00
2022-11-07T07:46:00.063Z,9.00
2022-11-07T07:48:27.487Z,9.00
2022-11-07T07:50:54.697Z,9.00
2022-11-07T07:53:21.846Z,9.10
2022-11-07T07:55:48.646Z,9.10
2022-11-07T07:58:15.885Z,9.10
2022-11-07T08:00:42.823Z,9.10
2022-11-07T08:03:11.751Z,9.10
2022-11-07T08:05:39.546Z,9.10
2022-11-07T08:08:07.841Z,9.10
2022-11-07T08:10:42.129Z,9.20
2022-11-07T08:13:09.556Z,9.30
2022-11-07T08:15:36.337Z,9.30
2022-11-07T08:18:04.350Z,9.50
2022-11-07T08:20:31.200Z,9.60
2022-11-07T08:23:02.596Z,9.60
2022-11-07T08:25:29.633Z,9.70
2022-11-07T08:27:56.565Z,9.80
2022-11-07T08:30:23.756Z,9.90
2022-11-07T08:32:50.529Z,10.10
2022-11-07T08:35:17.374Z,10.20
2022-11-07T08:37:44.371Z,10.40
2022-11-07T08:40:11.815Z,10.40
2022-11-07T08:42:38.598Z,10.50
2022-11-07T08:45:05.976Z,10.60
2022-11-07T08:47:32.777Z,10.50
2022-11-07T08:49:59.618Z,10.50
2022-11-07T08:52:26.405Z,10.60
2022-11-07T08:54:53.181Z,10.80
2022-11-07T08:57:19.947Z,10.90
2022-11-07T08:59:46.726Z,11.20
2022-11-07T09:05:00.605Z,11.30
2022-11-07T09:07:27.909Z,11.20
2022-11-07T09:09:54.667Z,11.30
2022-11-07T09:12:21.473Z,11.50
2022-11-07T09:14:48.279Z,11.70
2022-11-07T09:17:15.088Z,11.60
2022-11-07T09:19:41.931Z,11.60
2022-11-07T09:22:08.730Z,11.80
2022-11-07T09:24:35.543Z,11.80
2022-11-07T09:27:02.406Z,12.00
2022-11-07T09:29:29.251Z,12.10
2022-11-07T09:31:56.025Z,12.00
2022-11-07T09:34:22.858Z,12.20
2022-11-07T09:36:49.602Z,12.30
2022-11-07T09:39:16.379Z,12.30
2022-11-07T09:41:50.147Z,12.50
2022-11-07T09:44:32.416Z,12.60
2022-11-07T09:47:26.215Z,12.50
2022-11-07T09:49:57.787Z,12.80
2022-11-07T09:52:37.562Z,12.90
2022-11-07T09:55:23.398Z,12.90
2022-11-07T09:57:54.484Z,13.10
2022-11-07T10:00:23.194Z,13.20
2022-11-07T10:02:58.629Z,13.40
2022-11-07T10:05:39.374Z,13.20
2022-11-07T10:08:45.721Z,13.00
2022-11-07T10:11:29.051Z,13.10
2022-11-07T10:14:15.238Z,13.20
2022-11-07T10:16:59.143Z,13.40
2022-11-07T10:19:31.772Z,13.40
2022-11-07T10:21:58.561Z,13.50
2022-11-07T10:24:51.177Z,13.50
2022-11-07T10:27:17.958Z,13.50
2022-11-07T10:29:54.569Z,13.50
2022-11-07T10:32:43.079Z,13.50
2022-11-07T10:35:12.837Z,13.60
2022-11-07T10:37:39.833Z,14.00
2022-11-07T10:40:16.463Z,14.20
2022-11-07T10:42:45.845Z,14.20
2022-11-07T10:45:15.233Z,14.40
2022-11-07T10:47:42.481Z,14.30
2022-11-07T10:50:22.388Z,14.20
2022-11-07T10:52:58.379Z,13.90
2022-11-07T10:55:26.656Z,14.20
2022-11-07T10:58:06.706Z,14.10
2022-11-07T11:00:37.583Z,14.00
2022-11-07T11:03:16.328Z,14.00
2022-11-07T11:05:46.082Z,14.00
2022-11-07T11:08:27.512Z,14.10
2022-11-07T11:10:54.315Z,14.20
2022-11-07T11:13:32.779Z,14.30
2022-11-07T11:16:27.441Z,14.40
2022-11-07T11:18:58.307Z,14.50
2022-11-07T11:21:25.789Z,14.50
2022-11-07T11:23:54.372Z,14.40
2022-11-07T11:26:21.220Z,14.10
2022-11-07T11:29:03.512Z,14.00
2022-11-07T11:31:35.066Z,14.10
2022-11-07T11:34:28.196Z,14.00
2022-11-07T11:37:08.799Z,13.90
2022-11-07T11:39:39.633Z,13.80
2022-11-07T11:42:29.061Z,14.00
2022-11-07T11:45:13.306Z,14.20
2022-11-07T11:47:45.129Z,14.20
2022-11-07T11:50:22.911Z,14.20
2022-11-07T11:52:49.916Z,14.30
2022-11-07T11:55:20.693Z,14.30
2022-11-07T11:58:12.450Z,14.50
2022-11-07T12:00:48.301Z,14.60
2022-11-07T12:03:25.437Z,14.60
2022-11-07T12:06:07.055Z,14.60
2022-11-07T12:08:58.704Z,14.80
2022-11-07T12:11:38.254Z,14.70
2022-11-07T12:14:43.509Z,14.60
2022-11-07T12:17:37.344Z,14.40
2022-11-07T12:20:04.537Z,14.30
2022-11-07T12:22:40.446Z,14.20
2022-11-07T12:25:24.810Z,14.10
2022-11-07T12:28:26.902Z,14.10
2022-11-07T12:31:26.391Z,14.20
2022-11-07T12:34:11.626Z,14.30
2022-11-07T12:36:49.661Z,14.50
2022-11-07T12:39:50.417Z,14.50
2022-11-07T12:43:03.271Z,14.30
2022-11-07T12:45:52.452Z,14.10
2022-11-07T12:48:22.050Z,13.90
2022-11-07T12:51:05.160Z,13.90
2022-11-07T12:53:53.084Z,13.80
2022-11-07T12:56:24.189Z,13.70
2022-11-07T12:58:52.939Z,13.70
2022-11-07T13:01:26.470Z,13.80
2022-11-07T13:04:32.055Z,13.80
2022-11-07T13:07:15.408Z,13.80
2022-11-07T13:10:02.740Z,13.80
2022-11-07T13:12:46.872Z,13.70
2022-11-07T13:15:16.041Z,13.70
2022-11-07T13:17:47.182Z,13.70
2022-11-07T13:20:29.315Z,13.60
2022-11-07T13:23:00.647Z,13.60
2022-11-07T13:25:31.083Z,13.60
2022-11-07T13:27:58.018Z,13.60
2022-11-07T13:30:30.533Z,13.60
2022-11-07T13:32:59.045Z,13.50
2022-11-07T13:35:29.037Z,13.40
2022-11-07T13:38:10.019Z,13.40
2022-11-07T13:41:04.317Z,13.40
2022-11-07T13:43:45.275Z,13.30
2022-11-07T13:46:21.279Z,13.40
2022-11-07T13:48:59.204Z,13.30
2022-11-07T13:51:43.261Z,13.30
2022-11-07T13:54:10.004Z,13.30
2022-11-07T13:56:45.580Z,13.30
2022-11-07T13:59:24.345Z,13.20
2022-11-07T14:01:55.777Z,13.20
2022-11-07T14:04:22.744Z,13.30
2022-11-07T14:06:50.403Z,13.30
2022-11-07T14:09:20.004Z,13.30
2022-11-07T14:11:49.374Z,13.30
2022-11-07T14:14:16.298Z,13.20
2022-11-07T14:16:46.515Z,13.20
2022-11-07T14:19:16.758Z,13.20
2022-11-07T14:21:47.202Z,13.20
2022-11-07T14:24:21.637Z,13.20
2022-11-07T14:27:15.827Z,13.20
2022-11-07T14:29:56.844Z,13.20
2022-11-07T14:32:29.349Z,13.20
2022-11-07T14:35:00.082Z,13.20
2022-11-07T14:37:27.041Z,13.20
2022-11-07T14:39:54.073Z,13.20
2022-11-07T14:42:25.551Z,13.20
2022-11-07T14:44:56.340Z,13.20
2022-11-07T14:47:28.156Z,13.10
2022-11-07T14:49:56.422Z,13.00
2022-11-07T14:52:32.829Z,13.00
2022-11-07T14:55:13.087Z,13.00
2022-11-07T14:57:40.283Z,12.90
2022-11-07T15:00:12.673Z,12.90
2022-11-07T15:02:39.718Z,13.00
2022-11-07T15:05:20.405Z,12.90
2022-11-07T15:07:49.214Z,12.90
2022-11-07T15:10:26.852Z,12.90
2022-11-07T15:13:00.347Z,12.90
2022-11-07T15:15:32.625Z,12.90
2022-11-07T15:18:02.903Z,12.80
2022-11-07T15:20:33.268Z,12.80
2022-11-07T15:23:03.992Z,12.80
2022-11-07T15:25:40.159Z,12.70
2022-11-07T15:28:24.656Z,12.80
2022-11-07T15:30:54.801Z,12.70
2022-11-07T15:33:21.846Z,12.70
2022-11-07T15:35:50.842Z,12.70
2022-11-07T15:38:20.490Z,12.70
2022-11-07T15:40:48.395Z,12.70
2022-11-07T15:43:15.514Z,12.70
2022-11-07T15:45:42.766Z,12.70
2022-11-07T15:48:16.916Z,12.70
2022-11-07T15:50:45.275Z,12.70
2022-11-07T15:53:27.078Z,12.70
2022-11-07T15:55:59.017Z,12.70
2022-11-07T15:58:28.253Z,12.70
2022-11-07T16:00:56.468Z,12.70
2022-11-07T16:03:25.033Z,12.60
2022-11-07T16:05:54.428Z,12.60
2022-11-07T16:08:23.994Z,12.60
2022-11-07T16:10:56.681Z,12.60
2022-11-07T16:13:23.521Z,12.50
2022-11-07T16:16:20.830Z,12.50
2022-11-07T16:18:50.549Z,12.50
2022-11-07T16:21:18.195Z,12.40
2022-11-07T16:23:47.937Z,12.40
2022-11-07T16:26:16.934Z,12.30
2022-11-07T16:28:45.193Z,12.30
2022-11-07T16:31:12.283Z,12.20
2022-11-07T16:33:39.123Z,12.20
2022-11-07T16:36:19.282Z,12.20
2022-11-07T16:38:46.106Z,12.10
2022-11-07T16:41:13.980Z,12.00
2022-11-07T16:43:41.395Z,12.10
2022-11-07T16:46:16.441Z,12.00
2022-11-07T16:48:43.987Z,11.90
2022-11-07T16:51:16.495Z,11.90
2022-11-07T16:53:44.028Z,11.90
2022-11-07T16:56:31.983Z,11.80
2022-11-07T16:58:59.682Z,11.70
2022-11-07T17:01:27.948Z,11.70
2022-11-07T17:03:55.172Z,11.70
2022-11-07T17:06:29.979Z,11.70
2022-11-07T17:09:05.899Z,11.70
2022-11-07T17:11:35.779Z,11.60
2022-11-07T17:14:02.548Z,11.70
2022-11-07T17:16:34.632Z,11.70
2022-11-07T17:19:02.192Z,11.70
2022-11-07T17:21:31.352Z,11.70
2022-11-07T17:24:00.428Z,11.70
2022-11-07T17:26:30.066Z,11.70
2022-11-07T17:28:58.779Z,11.70
2022-11-07T17:31:25.866Z,11.70
2022-11-07T17:33:52.974Z,11.70
2022-11-07T17:36:25.239Z,11.70
2022-11-07T17:38:53.033Z,11.70
2022-11-07T17:41:20.355Z,11.70
2022-11-07T17:43:48.139Z,11.60
2022-11-07T17:46:17.857Z,11.60
2022-11-07T17:48:47.249Z,11.70
2022-11-07T17:51:14.897Z,11.60
2022-11-07T17:53:43.475Z,11.60
2022-11-07T17:56:17.187Z,11.60
2022-11-07T17:58:51.136Z,11.50
2022-11-07T18:01:23.047Z,11.50
2022-11-07T18:03:51.935Z,11.60
2022-11-07T18:06:23.337Z,11.60
2022-11-07T18:08:55.802Z,11.60
2022-11-07T18:11:25.768Z,11.60
2022-11-07T18:13:58.057Z,11.60
2022-11-07T18:16:33.496Z,11.60
2022-11-07T18:19:01.515Z,11.60
2022-11-07T18:21:29.126Z,11.60
2022-11-07T18:23:56.594Z,11.60
2022-11-07T18:26:30.775Z,11.60
2022-11-07T18:29:08.771Z,11.60
2022-11-07T18:31:37.227Z,11.50
2022-11-07T18:34:06.699Z,11.60
2022-11-07T18:36:36.889Z,11.50
2022-11-07T18:39:06.238Z,11.50
2022-11-07T18:41:33.008Z,11.50
2022-11-07T18:44:04.527Z,11.50
2022-11-07T18:46:31.973Z,11.50
2022-11-07T18:49:02.226Z,11.50
2022-11-07T18:51:29.136Z,11.50
2022-11-07T18:53:55.974Z,11.50
2022-11-07T18:56:22.982Z,11.40
2022-11-07T18:58:49.750Z,11.40
2022-11-07T19:01:19.823Z,11.40
2022-11-07T19:03:47.188Z,11.40
2022-11-07T19:06:19.298Z,11.30
2022-11-07T19:08:47.721Z,11.40
2022-11-07T19:11:17.651Z,11.40
2022-11-07T19:13:48.285Z,11.40
2022-11-07T19:16:18.069Z,11.40
2022-11-07T19:18:49.467Z,11.50
2022-11-07T19:21:19.707Z,11.50
2022-11-07T19:23:47.770Z,11.50
2022-11-07T19:26:14.907Z,11.50
2022-11-07T19:28:41.821Z,11.40
2022-11-07T19:31:12.685Z,11.50
2022-11-07T19:33:40.756Z,11.50
2022-11-07T19:36:12.168Z,11.50
2022-11-07T19:38:39.484Z,11.60
2022-11-07T19:41:07.592Z,11.50
2022-11-07T19:43:35.168Z,11.60
2022-11-07T19:46:14.615Z,11.60
2022-11-07T19:48:41.533Z,11.50
2022-11-07T19:51:11.379Z,11.50
2022-11-07T19:53:39.448Z,11.50
2022-11-07T19:56:08.607Z,11.50
2022-11-07T19:58:39.061Z,11.50
2022-11-07T20:01:14.441Z,11.40
2022-11-07T20:03:51.179Z,11.40
2022-11-07T20:06:21.857Z,11.40
2022-11-07T20:08:49.206Z,11.30
2022-11-07T20:11:18.263Z,11.40
2022-11-07T20:13:45.258Z,11.40
2022-11-07T20:16:12.107Z,11.40
2022-11-07T20:18:40.174Z,11.40
2022-11-07T20:21:12.187Z,11.50
2022-11-07T20:23:40.233Z,11.50
2022-11-07T20:26:08.856Z,11.60
2022-11-07T20:28:35.802Z,11.60
2022-11-07T20:31:07.853Z,11.60
2022-11-07T20:33:34.904Z,11.70
2022-11-07T20:36:04.824Z,11.70
2022-11-07T20:38:32.443Z,11.70
2022-11-07T20:40:59.349Z,11.80
2022-11-07T20:43:26.182Z,11.70
2022-11-07T20:45:53.219Z,11.80
2022-11-07T20:48:20.259Z,11.80
2022-11-07T20:50:47.429Z,11.80
2022-11-07T20:53:15.003Z,11.80
2022-11-07T20:55:44.080Z,11.80
2022-11-07T20:58:11.394Z,11.80
2022-11-07T21:00:40.757Z,11.80
2022-11-07T21:03:13.022Z,11.90
2022-11-07T21:05:40.035Z,11.80
2022-11-07T21:08:06.816Z,11.80
2022-11-07T21:10:33.658Z,11.80
2022-11-07T21:13:00.485Z,11.70
2022-11-07T21:15:27.327Z,11.70
2022-11-07T21:17:54.070Z,11.60
2022-11-07T21:20:20.846Z,11.60
2022-11-07T21:22:50.794Z,11.60
2022-11-07T21:25:17.868Z,11.50
2022-11-07T21:27:44.697Z,11.50
2022-11-07T21:30:12.951Z,11.50
2022-11-07T21:32:39.906Z,11.50
2022-11-07T21:35:07.180Z,11.40
2022-11-07T21:37:33.975Z,11.40
2022-11-07T21:40:00.767Z,11.40
2022-11-07T21:42:27.762Z,11.40
2022-11-07T21:44:54.618Z,11.40
2022-11-07T21:47:21.775Z,11.40
2022-11-07T21:49:49.788Z,11.40
2022-11-07T21:52:17.310Z,11.40
2022-11-07T21:54:44.829Z,11.40
2022-11-07T21:57:11.651Z,11.40
2022-11-07T21:59:38.420Z,11.40
2022-11-07T22:02:05.568Z,11.40
2022-11-07T22:04:32.652Z,11.30
2022-11-07T22:06:59.502Z,11.30
2022-11-07T22:09:26.389Z,11.30
2022-11-07T22:11:53.278Z,11.30
2022-11-07T22:14:22.164Z,11.20
2022-11-07T22:16:50.158Z,11.20
2022-11-07T22:19:18.664Z,11.20
2022-11-07T22:21:45.622Z,11.20
2022-11-07T22:24:12.521Z,11.20
2022-11-07T22:26:39.382Z,11.10
2022-11-07T22:29:06.146Z,11.10
2022-11-07T22:31:32.977Z,11.10
2022-11-07T22:34:00.855Z,11.10
2022-11-07T22:36:28.250Z,11.10
2022-11-07T22:38:57.405Z,11.10
2022-11-07T22:41:25.751Z,11.10
2022-11-07T22:43:52.963Z,11.00
2022-11-07T22:46:25.352Z,11.00
2022-11-07T22:48:53.248Z,11.00
2022-11-07T22:51:23.561Z,11.00
2022-11-07T22:54:02.137Z,11.00
2022-11-07T22:56:30.039Z,11.00
2022-11-07T22:58:56.960Z,10.90
2022-11-07T23:01:25.424Z,10.90
2022-11-07T23:03:53.797Z,11.00
2022-11-07T23:06:21.300Z,10.80
2022-11-07T23:08:49.224Z,11.00
2022-11-07T23:11:45.283Z,11.00
2022-11-07T23:14:14.596Z,11.00
2022-11-07T23:16:50.644Z,11.00
2022-11-07T23:19:20.652Z,10.90
2022-11-07T23:21:48.840Z,10.90
2022-11-07T23:24:15.665Z,11.00
2022-11-07T23:26:42.755Z,10.90
2022-11-07T23:29:15.807Z,10.90
2022-11-07T23:31:45.409Z,10.90
2022-11-07T23:34:12.273Z,10.90
2022-11-07T23:36:44.120Z,10.90
2022-11-07T23:39:17.630Z,10.90
2022-11-07T23:41:44.896Z,10.90
2022-11-07T23:44:12.280Z,10.90
2022-11-07T23:46:57.509Z,10.90
2022-11-07T23:49:36.488Z,10.90
2022-11-07T23:52:04.191Z,10.80
2022-11-07T23:54:50.058Z,10.80
2022-11-07T23:57:16.828Z,10.80
